sensor_id;sensor_type;location;lat;lon;timestamp;P1;durP1;ratioP1;P2;durP2;ratioP2
52620;SDS011;38515;53.160;6.990;2022-07-06T00:02:01;4.97;;;2.72;;
52620;SDS011;38515;53.160;6.990;2022-07-06T00:04:28;9.23;;;3.00;;
52620;SDS011;38515;53.160;6.990;2022-07-06T00:06:54;6.03;;;2.85;;
52620;SDS011;38515;53.160;6.990;2022-07-06T00:09:19;5.93;;;2.92;;
52620;SDS011;38515;53.160;6.990;2022-07-06T00:11:45;7.32;;;4.65;;
52620;SDS011;38515;53.160;6.990;2022-07-06T00:14:11;8.45;;;3.20;;
52620;SDS011;38515;53.160;6.990;2022-07-06T00:16:37;4.28;;;2.50;;
52620;SDS011;38515;53.160;6.990;2022-07-06T00:19:03;4.38;;;2.13;;
52620;SDS011;38515;53.160;6.990;2022-07-06T00:21:29;10.90;;;2.85;;
52620;SDS011;38515;53.160;6.990;2022-07-06T00:23:54;7.10;;;2.50;;
52620;SDS011;38515;53.160;6.990;2022-07-06T00:26:20;3.95;;;2.25;;
52620;SDS011;38515;53.160;6.990;2022-07-06T00:28:46;7.00;;;2.88;;
52620;SDS011;38515;53.160;6.990;2022-07-06T00:31:12;2.65;;;2.08;;
52620;SDS011;38515;53.160;6.990;2022-07-06T00:33:38;19.73;;;2.47;;
52620;SDS011;38515;53.160;6.990;2022-07-06T00:36:04;3.25;;;1.88;;
52620;SDS011;38515;53.160;6.990;2022-07-06T00:38:30;6.90;;;1.63;;
52620;SDS011;38515;53.160;6.990;2022-07-06T00:40:56;2.83;;;1.40;;
52620;SDS011;38515;53.160;6.990;2022-07-06T00:43:22;8.38;;;1.63;;
52620;SDS011;38515;53.160;6.990;2022-07-06T00:45:48;3.10;;;1.83;;
52620;SDS011;38515;53.160;6.990;2022-07-06T00:48:14;4.05;;;1.20;;
52620;SDS011;38515;53.160;6.990;2022-07-06T00:50:39;3.00;;;1.35;;
52620;SDS011;38515;53.160;6.990;2022-07-06T00:53:06;5.15;;;1.52;;
52620;SDS011;38515;53.160;6.990;2022-07-06T00:55:34;3.60;;;1.10;;
52620;SDS011;38515;53.160;6.990;2022-07-06T00:58:04;1.58;;;1.13;;
52620;SDS011;38515;53.160;6.990;2022-07-06T01:00:31;3.08;;;1.33;;
52620;SDS011;38515;53.160;6.990;2022-07-06T01:02:57;2.55;;;1.15;;
52620;SDS011;38515;53.160;6.990;2022-07-06T01:05:23;2.33;;;1.13;;
52620;SDS011;38515;53.160;6.990;2022-07-06T01:07:51;2.53;;;1.50;;
52620;SDS011;38515;53.160;6.990;2022-07-06T01:10:19;1.75;;;1.40;;
52620;SDS011;38515;53.160;6.990;2022-07-06T01:12:46;3.90;;;1.40;;
52620;SDS011;38515;53.160;6.990;2022-07-06T01:15:14;5.32;;;1.75;;
52620;SDS011;38515;53.160;6.990;2022-07-06T01:17:42;2.38;;;1.45;;
52620;SDS011;38515;53.160;6.990;2022-07-06T01:22:35;2.33;;;1.60;;
52620;SDS011;38515;53.160;6.990;2022-07-06T01:25:01;3.78;;;1.75;;
52620;SDS011;38515;53.160;6.990;2022-07-06T01:27:28;5.15;;;1.40;;
52620;SDS011;38515;53.160;6.990;2022-07-06T01:29:54;3.03;;;1.35;;
52620;SDS011;38515;53.160;6.990;2022-07-06T01:32:20;2.47;;;1.60;;
52620;SDS011;38515;53.160;6.990;2022-07-06T01:34:46;2.42;;;1.67;;
52620;SDS011;38515;53.160;6.990;2022-07-06T01:37:11;2.30;;;1.52;;
52620;SDS011;38515;53.160;6.990;2022-07-06T01:39:37;7.35;;;1.75;;
52620;SDS011;38515;53.160;6.990;2022-07-06T01:42:03;9.80;;;2.33;;
52620;SDS011;38515;53.160;6.990;2022-07-06T01:44:30;2.47;;;1.55;;
52620;SDS011;38515;53.160;6.990;2022-07-06T01:46:55;7.65;;;2.78;;
52620;SDS011;38515;53.160;6.990;2022-07-06T01:49:21;6.97;;;2.10;;
52620;SDS011;38515;53.160;6.990;2022-07-06T01:51:47;8.10;;;2.33;;
52620;SDS011;38515;53.160;6.990;2022-07-06T01:54:13;5.57;;;2.25;;
52620;SDS011;38515;53.160;6.990;2022-07-06T01:56:38;4.18;;;1.90;;
52620;SDS011;38515;53.160;6.990;2022-07-06T01:59:04;4.25;;;2.10;;
52620;SDS011;38515;53.160;6.990;2022-07-06T02:01:30;3.55;;;1.58;;
52620;SDS011;38515;53.160;6.990;2022-07-06T02:03:56;3.08;;;1.60;;
52620;SDS011;38515;53.160;6.990;2022-07-06T02:06:21;3.95;;;1.73;;
52620;SDS011;38515;53.160;6.990;2022-07-06T02:08:47;4.05;;;1.75;;
52620;SDS011;38515;53.160;6.990;2022-07-06T02:11:13;3.65;;;2.22;;
52620;SDS011;38515;53.160;6.990;2022-07-06T02:13:39;9.77;;;2.25;;
52620;SDS011;38515;53.160;6.990;2022-07-06T02:16:05;4.82;;;2.38;;
52620;SDS011;38515;53.160;6.990;2022-07-06T02:18:31;4.30;;;2.60;;
52620;SDS011;38515;53.160;6.990;2022-07-06T02:20:56;3.47;;;2.55;;
52620;SDS011;38515;53.160;6.990;2022-07-06T02:23:22;6.60;;;3.17;;
52620;SDS011;38515;53.160;6.990;2022-07-06T02:25:48;5.35;;;2.78;;
52620;SDS011;38515;53.160;6.990;2022-07-06T02:28:14;5.55;;;2.53;;
52620;SDS011;38515;53.160;6.990;2022-07-06T02:30:40;4.38;;;2.55;;
52620;SDS011;38515;53.160;6.990;2022-07-06T02:33:05;4.97;;;1.92;;
52620;SDS011;38515;53.160;6.990;2022-07-06T02:35:31;5.57;;;2.20;;
52620;SDS011;38515;53.160;6.990;2022-07-06T02:37:57;5.15;;;2.65;;
52620;SDS011;38515;53.160;6.990;2022-07-06T02:40:23;10.10;;;3.10;;
52620;SDS011;38515;53.160;6.990;2022-07-06T02:42:48;7.32;;;2.55;;
52620;SDS011;38515;53.160;6.990;2022-07-06T02:45:14;7.82;;;2.72;;
52620;SDS011;38515;53.160;6.990;2022-07-06T02:47:40;4.75;;;2.47;;
52620;SDS011;38515;53.160;6.990;2022-07-06T02:50:06;4.85;;;2.15;;
52620;SDS011;38515;53.160;6.990;2022-07-06T02:52:32;3.22;;;2.05;;
52620;SDS011;38515;53.160;6.990;2022-07-06T02:54:58;8.07;;;2.58;;
52620;SDS011;38515;53.160;6.990;2022-07-06T02:57:23;4.82;;;2.53;;
52620;SDS011;38515;53.160;6.990;2022-07-06T02:59:49;2.92;;;2.00;;
52620;SDS011;38515;53.160;6.990;2022-07-06T03:02:15;4.90;;;2.63;;
52620;SDS011;38515;53.160;6.990;2022-07-06T03:04:41;10.15;;;2.63;;
52620;SDS011;38515;53.160;6.990;2022-07-06T03:07:07;4.03;;;2.25;;
52620;SDS011;38515;53.160;6.990;2022-07-06T03:09:33;6.32;;;2.15;;
52620;SDS011;38515;53.160;6.990;2022-07-06T03:11:59;3.35;;;2.00;;
52620;SDS011;38515;53.160;6.990;2022-07-06T03:14:25;6.63;;;2.05;;
52620;SDS011;38515;53.160;6.990;2022-07-06T03:16:52;7.95;;;2.00;;
52620;SDS011;38515;53.160;6.990;2022-07-06T03:19:18;6.18;;;2.03;;
52620;SDS011;38515;53.160;6.990;2022-07-06T03:21:44;5.13;;;2.38;;
52620;SDS011;38515;53.160;6.990;2022-07-06T03:24:10;4.10;;;1.98;;
52620;SDS011;38515;53.160;6.990;2022-07-06T03:26:35;3.50;;;1.73;;
52620;SDS011;38515;53.160;6.990;2022-07-06T03:29:01;4.60;;;2.22;;
52620;SDS011;38515;53.160;6.990;2022-07-06T03:31:27;2.95;;;2.03;;
52620;SDS011;38515;53.160;6.990;2022-07-06T03:33:53;4.85;;;2.28;;
52620;SDS011;38515;53.160;6.990;2022-07-06T03:36:19;2.97;;;1.95;;
52620;SDS011;38515;53.160;6.990;2022-07-06T03:38:44;4.18;;;2.03;;
52620;SDS011;38515;53.160;6.990;2022-07-06T03:41:10;3.92;;;2.05;;
52620;SDS011;38515;53.160;6.990;2022-07-06T03:43:36;5.82;;;2.00;;
52620;SDS011;38515;53.160;6.990;2022-07-06T03:46:02;3.33;;;2.08;;
52620;SDS011;38515;53.160;6.990;2022-07-06T03:48:28;6.15;;;2.97;;
52620;SDS011;38515;53.160;6.990;2022-07-06T03:50:54;6.05;;;2.05;;
52620;SDS011;38515;53.160;6.990;2022-07-06T03:53:20;5.35;;;2.15;;
52620;SDS011;38515;53.160;6.990;2022-07-06T03:55:46;7.13;;;2.30;;
52620;SDS011;38515;53.160;6.990;2022-07-06T03:58:32;6.10;;;2.28;;
52620;SDS011;38515;53.160;6.990;2022-07-06T04:00:58;9.73;;;2.60;;
52620;SDS011;38515;53.160;6.990;2022-07-06T04:03:24;6.07;;;2.95;;
52620;SDS011;38515;53.160;6.990;2022-07-06T04:05:50;8.25;;;2.65;;
52620;SDS011;38515;53.160;6.990;2022-07-06T04:08:16;5.47;;;2.22;;
52620;SDS011;38515;53.160;6.990;2022-07-06T04:10:42;6.15;;;2.40;;
52620;SDS011;38515;53.160;6.990;2022-07-06T04:13:07;5.95;;;2.83;;
52620;SDS011;38515;53.160;6.990;2022-07-06T04:15:33;5.50;;;2.33;;
52620;SDS011;38515;53.160;6.990;2022-07-06T04:17:59;4.30;;;2.30;;
52620;SDS011;38515;53.160;6.990;2022-07-06T04:20:25;5.03;;;2.30;;
52620;SDS011;38515;53.160;6.990;2022-07-06T04:22:51;2.72;;;2.05;;
52620;SDS011;38515;53.160;6.990;2022-07-06T04:25:17;6.30;;;2.45;;
52620;SDS011;38515;53.160;6.990;2022-07-06T04:27:43;4.00;;;2.50;;
52620;SDS011;38515;53.160;6.990;2022-07-06T04:30:09;5.57;;;2.70;;
52620;SDS011;38515;53.160;6.990;2022-07-06T04:32:35;4.97;;;2.55;;
52620;SDS011;38515;53.160;6.990;2022-07-06T04:35:02;4.88;;;2.25;;
52620;SDS011;38515;53.160;6.990;2022-07-06T04:37:29;5.28;;;2.90;;
52620;SDS011;38515;53.160;6.990;2022-07-06T04:39:55;5.82;;;2.78;;
52620;SDS011;38515;53.160;6.990;2022-07-06T04:42:21;3.67;;;2.10;;
52620;SDS011;38515;53.160;6.990;2022-07-06T04:44:47;5.53;;;2.72;;
52620;SDS011;38515;53.160;6.990;2022-07-06T04:47:14;5.30;;;2.28;;
52620;SDS011;38515;53.160;6.990;2022-07-06T04:49:40;9.23;;;2.25;;
52620;SDS011;38515;53.160;6.990;2022-07-06T04:52:06;5.68;;;2.50;;
52620;SDS011;38515;53.160;6.990;2022-07-06T04:54:33;6.72;;;2.67;;
52620;SDS011;38515;53.160;6.990;2022-07-06T04:56:59;4.45;;;2.10;;
52620;SDS011;38515;53.160;6.990;2022-07-06T04:59:24;4.70;;;2.78;;
52620;SDS011;38515;53.160;6.990;2022-07-06T05:01:50;6.65;;;2.42;;
52620;SDS011;38515;53.160;6.990;2022-07-06T05:04:16;3.15;;;2.30;;
52620;SDS011;38515;53.160;6.990;2022-07-06T05:06:44;4.13;;;3.22;;
52620;SDS011;38515;53.160;6.990;2022-07-06T05:09:11;4.18;;;2.65;;
52620;SDS011;38515;53.160;6.990;2022-07-06T05:11:37;5.68;;;3.28;;
52620;SDS011;38515;53.160;6.990;2022-07-06T05:14:04;4.25;;;2.67;;
52620;SDS011;38515;53.160;6.990;2022-07-06T05:16:30;5.53;;;2.85;;
52620;SDS011;38515;53.160;6.990;2022-07-06T05:18:56;6.63;;;3.20;;
52620;SDS011;38515;53.160;6.990;2022-07-06T05:21:22;5.30;;;3.13;;
52620;SDS011;38515;53.160;6.990;2022-07-06T05:23:48;4.03;;;1.95;;
52620;SDS011;38515;53.160;6.990;2022-07-06T05:26:14;6.10;;;2.20;;
52620;SDS011;38515;53.160;6.990;2022-07-06T05:28:39;6.47;;;2.40;;
52620;SDS011;38515;53.160;6.990;2022-07-06T05:31:05;4.70;;;1.88;;
52620;SDS011;38515;53.160;6.990;2022-07-06T05:33:31;5.20;;;2.50;;
52620;SDS011;38515;53.160;6.990;2022-07-06T05:36:04;3.75;;;1.55;;
52620;SDS011;38515;53.160;6.990;2022-07-06T05:38:30;5.32;;;1.55;;
52620;SDS011;38515;53.160;6.990;2022-07-06T05:40:57;3.30;;;1.38;;
52620;SDS011;38515;53.160;6.990;2022-07-06T05:43:22;3.95;;;1.63;;
52620;SDS011;38515;53.160;6.990;2022-07-06T05:45:48;3.15;;;1.50;;
52620;SDS011;38515;53.160;6.990;2022-07-06T05:48:14;3.53;;;1.80;;
52620;SDS011;38515;53.160;6.990;2022-07-06T05:50:59;3.97;;;1.58;;
52620;SDS011;38515;53.160;6.990;2022-07-06T05:53:24;2.38;;;0.93;;
52620;SDS011;38515;53.160;6.990;2022-07-06T05:55:50;1.33;;;1.08;;
52620;SDS011;38515;53.160;6.990;2022-07-06T05:58:16;5.97;;;1.13;;
52620;SDS011;38515;53.160;6.990;2022-07-06T06:00:42;1.95;;;1.08;;
52620;SDS011;38515;53.160;6.990;2022-07-06T06:03:08;5.47;;;1.10;;
52620;SDS011;38515;53.160;6.990;2022-07-06T06:05:33;6.32;;;1.05;;
52620;SDS011;38515;53.160;6.990;2022-07-06T06:07:59;4.82;;;1.10;;
52620;SDS011;38515;53.160;6.990;2022-07-06T06:10:25;1.98;;;1.00;;
52620;SDS011;38515;53.160;6.990;2022-07-06T06:12:51;1.92;;;1.00;;
52620;SDS011;38515;53.160;6.990;2022-07-06T06:15:17;1.75;;;1.08;;
52620;SDS011;38515;53.160;6.990;2022-07-06T06:17:43;1.15;;;0.93;;
52620;SDS011;38515;53.160;6.990;2022-07-06T06:20:10;4.47;;;1.05;;
52620;SDS011;38515;53.160;6.990;2022-07-06T06:22:48;3.70;;;1.08;;
52620;SDS011;38515;53.160;6.990;2022-07-06T06:25:26;6.55;;;1.33;;
52620;SDS011;38515;53.160;6.990;2022-07-06T06:27:54;1.38;;;0.90;;
52620;SDS011;38515;53.160;6.990;2022-07-06T06:30:20;0.95;;;0.68;;
52620;SDS011;38515;53.160;6.990;2022-07-06T06:32:46;2.58;;;1.45;;
52620;SDS011;38515;53.160;6.990;2022-07-06T06:35:11;4.05;;;1.30;;
52620;SDS011;38515;53.160;6.990;2022-07-06T06:37:37;1.48;;;1.20;;
52620;SDS011;38515;53.160;6.990;2022-07-06T06:40:04;2.47;;;1.23;;
52620;SDS011;38515;53.160;6.990;2022-07-06T06:42:31;4.60;;;1.60;;
52620;SDS011;38515;53.160;6.990;2022-07-06T06:44:57;3.42;;;1.45;;
52620;SDS011;38515;53.160;6.990;2022-07-06T06:47:23;2.38;;;1.13;;
52620;SDS011;38515;53.160;6.990;2022-07-06T06:49:49;2.63;;;0.95;;
52620;SDS011;38515;53.160;6.990;2022-07-06T06:52:14;2.33;;;0.80;;
52620;SDS011;38515;53.160;6.990;2022-07-06T06:54:40;3.22;;;1.30;;
52620;SDS011;38515;53.160;6.990;2022-07-06T06:57:06;2.88;;;1.10;;
52620;SDS011;38515;53.160;6.990;2022-07-06T06:59:32;3.35;;;0.98;;
52620;SDS011;38515;53.160;6.990;2022-07-06T07:01:58;2.35;;;1.27;;
52620;SDS011;38515;53.160;6.990;2022-07-06T07:04:23;0.57;;;0.57;;
52620;SDS011;38515;53.160;6.990;2022-07-06T07:06:49;2.88;;;1.10;;
52620;SDS011;38515;53.160;6.990;2022-07-06T07:09:15;0.75;;;0.73;;
52620;SDS011;38515;53.160;6.990;2022-07-06T07:11:41;2.40;;;1.08;;
52620;SDS011;38515;53.160;6.990;2022-07-06T07:14:07;3.13;;;1.10;;
52620;SDS011;38515;53.160;6.990;2022-07-06T07:16:33;4.57;;;1.30;;
52620;SDS011;38515;53.160;6.990;2022-07-06T07:18:59;3.15;;;0.95;;
52620;SDS011;38515;53.160;6.990;2022-07-06T07:21:24;2.97;;;1.42;;
52620;SDS011;38515;53.160;6.990;2022-07-06T07:23:50;3.13;;;1.52;;
52620;SDS011;38515;53.160;6.990;2022-07-06T07:26:16;3.53;;;1.20;;
52620;SDS011;38515;53.160;6.990;2022-07-06T07:28:42;3.17;;;1.92;;
52620;SDS011;38515;53.160;6.990;2022-07-06T07:31:08;3.25;;;1.35;;
52620;SDS011;38515;53.160;6.990;2022-07-06T07:33:34;3.42;;;1.20;;
52620;SDS011;38515;53.160;6.990;2022-07-06T07:35:59;6.05;;;1.73;;
52620;SDS011;38515;53.160;6.990;2022-07-06T07:38:25;3.72;;;1.35;;
52620;SDS011;38515;53.160;6.990;2022-07-06T07:40:53;6.45;;;1.45;;
52620;SDS011;38515;53.160;6.990;2022-07-06T07:43:19;3.08;;;1.08;;
52620;SDS011;38515;53.160;6.990;2022-07-06T07:45:46;4.80;;;1.52;;
52620;SDS011;38515;53.160;6.990;2022-07-06T07:48:13;5.40;;;1.30;;
52620;SDS011;38515;53.160;6.990;2022-07-06T07:50:40;6.72;;;1.50;;
52620;SDS011;38515;53.160;6.990;2022-07-06T07:53:07;6.03;;;1.70;;
52620;SDS011;38515;53.160;6.990;2022-07-06T07:55:33;5.13;;;1.65;;
52620;SDS011;38515;53.160;6.990;2022-07-06T07:57:59;4.45;;;1.38;;
52620;SDS011;38515;53.160;6.990;2022-07-06T08:00:25;5.68;;;1.52;;
52620;SDS011;38515;53.160;6.990;2022-07-06T08:02:51;7.47;;;2.33;;
52620;SDS011;38515;53.160;6.990;2022-07-06T08:05:19;3.63;;;1.38;;
52620;SDS011;38515;53.160;6.990;2022-07-06T08:07:44;6.20;;;1.75;;
52620;SDS011;38515;53.160;6.990;2022-07-06T08:10:10;3.97;;;1.20;;
52620;SDS011;38515;53.160;6.990;2022-07-06T08:12:37;5.53;;;1.20;;
52620;SDS011;38515;53.160;6.990;2022-07-06T08:15:03;3.35;;;1.08;;
52620;SDS011;38515;53.160;6.990;2022-07-06T08:17:30;3.38;;;0.77;;
52620;SDS011;38515;53.160;6.990;2022-07-06T08:19:56;4.15;;;0.93;;
52620;SDS011;38515;53.160;6.990;2022-07-06T08:22:22;6.03;;;1.33;;
52620;SDS011;38515;53.160;6.990;2022-07-06T08:24:48;1.80;;;0.90;;
52620;SDS011;38515;53.160;6.990;2022-07-06T08:27:14;4.30;;;0.98;;
52620;SDS011;38515;53.160;6.990;2022-07-06T08:29:40;6.00;;;1.60;;
52620;SDS011;38515;53.160;6.990;2022-07-06T08:32:06;5.28;;;1.40;;
52620;SDS011;38515;53.160;6.990;2022-07-06T08:34:32;3.33;;;0.90;;
52620;SDS011;38515;53.160;6.990;2022-07-06T08:36:57;1.77;;;1.00;;
52620;SDS011;38515;53.160;6.990;2022-07-06T08:39:23;1.17;;;0.77;;
52620;SDS011;38515;53.160;6.990;2022-07-06T08:41:49;3.67;;;1.00;;
52620;SDS011;38515;53.160;6.990;2022-07-06T08:44:16;3.63;;;1.27;;
52620;SDS011;38515;53.160;6.990;2022-07-06T08:46:45;1.20;;;0.85;;
52620;SDS011;38515;53.160;6.990;2022-07-06T08:49:15;5.10;;;2.13;;
52620;SDS011;38515;53.160;6.990;2022-07-06T08:51:45;2.67;;;0.95;;
52620;SDS011;38515;53.160;6.990;2022-07-06T08:54:11;7.00;;;1.20;;
52620;SDS011;38515;53.160;6.990;2022-07-06T08:56:38;5.18;;;1.30;;
52620;SDS011;38515;53.160;6.990;2022-07-06T08:59:10;2.25;;;0.70;;
52620;SDS011;38515;53.160;6.990;2022-07-06T09:01:37;2.60;;;0.85;;
52620;SDS011;38515;53.160;6.990;2022-07-06T09:04:05;1.48;;;0.80;;
52620;SDS011;38515;53.160;6.990;2022-07-06T09:06:32;3.00;;;0.90;;
52620;SDS011;38515;53.160;6.990;2022-07-06T09:08:59;4.47;;;1.00;;
52620;SDS011;38515;53.160;6.990;2022-07-06T09:11:31;2.33;;;0.70;;
52620;SDS011;38515;53.160;6.990;2022-07-06T09:13:57;4.60;;;0.90;;
52620;SDS011;38515;53.160;6.990;2022-07-06T09:16:25;1.85;;;0.70;;
52620;SDS011;38515;53.160;6.990;2022-07-06T09:18:52;13.48;;;1.55;;
52620;SDS011;38515;53.160;6.990;2022-07-06T09:21:22;3.50;;;1.33;;
52620;SDS011;38515;53.160;6.990;2022-07-06T09:23:54;2.30;;;0.95;;
52620;SDS011;38515;53.160;6.990;2022-07-06T09:26:21;1.30;;;0.80;;
52620;SDS011;38515;53.160;6.990;2022-07-06T09:28:47;0.80;;;0.80;;
52620;SDS011;38515;53.160;6.990;2022-07-06T09:31:13;3.22;;;1.10;;
52620;SDS011;38515;53.160;6.990;2022-07-06T09:33:39;2.72;;;1.05;;
52620;SDS011;38515;53.160;6.990;2022-07-06T09:36:44;1.50;;;0.57;;
52620;SDS011;38515;53.160;6.990;2022-07-06T09:39:23;1.15;;;0.95;;
52620;SDS011;38515;53.160;6.990;2022-07-06T09:41:52;1.55;;;0.80;;
52620;SDS011;38515;53.160;6.990;2022-07-06T09:44:20;2.38;;;0.77;;
52620;SDS011;38515;53.160;6.990;2022-07-06T09:46:47;4.20;;;0.90;;
52620;SDS011;38515;53.160;6.990;2022-07-06T09:49:18;2.78;;;0.85;;
52620;SDS011;38515;53.160;6.990;2022-07-06T09:51:47;2.45;;;0.90;;
52620;SDS011;38515;53.160;6.990;2022-07-06T09:54:14;5.28;;;0.90;;
52620;SDS011;38515;53.160;6.990;2022-07-06T09:56:42;2.50;;;0.90;;
52620;SDS011;38515;53.160;6.990;2022-07-06T09:59:11;5.43;;;1.08;;
52620;SDS011;38515;53.160;6.990;2022-07-06T10:01:38;5.70;;;0.90;;
52620;SDS011;38515;53.160;6.990;2022-07-06T10:04:05;4.85;;;0.90;;
52620;SDS011;38515;53.160;6.990;2022-07-06T10:06:33;2.03;;;0.75;;
52620;SDS011;38515;53.160;6.990;2022-07-06T10:08:59;1.85;;;0.70;;
52620;SDS011;38515;53.160;6.990;2022-07-06T10:11:26;1.95;;;1.13;;
52620;SDS011;38515;53.160;6.990;2022-07-06T10:13:56;3.08;;;0.98;;
52620;SDS011;38515;53.160;6.990;2022-07-06T10:16:23;5.53;;;1.10;;
52620;SDS011;38515;53.160;6.990;2022-07-06T10:18:50;4.38;;;0.80;;
52620;SDS011;38515;53.160;6.990;2022-07-06T10:21:23;5.97;;;0.82;;
52620;SDS011;38515;53.160;6.990;2022-07-06T10:23:49;4.25;;;1.48;;
52620;SDS011;38515;53.160;6.990;2022-07-06T10:26:16;3.40;;;1.05;;
52620;SDS011;38515;53.160;6.990;2022-07-06T10:28:43;3.17;;;0.85;;
52620;SDS011;38515;53.160;6.990;2022-07-06T10:31:13;2.97;;;1.08;;
52620;SDS011;38515;53.160;6.990;2022-07-06T10:33:41;2.08;;;0.95;;
52620;SDS011;38515;53.160;6.990;2022-07-06T10:36:07;4.07;;;1.05;;
52620;SDS011;38515;53.160;6.990;2022-07-06T10:38:34;2.55;;;0.90;;
52620;SDS011;38515;53.160;6.990;2022-07-06T10:41:03;3.20;;;1.10;;
52620;SDS011;38515;53.160;6.990;2022-07-06T10:43:36;3.45;;;1.23;;
52620;SDS011;38515;53.160;6.990;2022-07-06T10:46:05;2.28;;;1.25;;
52620;SDS011;38515;53.160;6.990;2022-07-06T10:48:41;2.30;;;0.90;;
52620;SDS011;38515;53.160;6.990;2022-07-06T10:51:07;4.95;;;1.02;;
52620;SDS011;38515;53.160;6.990;2022-07-06T10:53:36;5.93;;;1.05;;
52620;SDS011;38515;53.160;6.990;2022-07-06T10:56:06;2.70;;;1.15;;
52620;SDS011;38515;53.160;6.990;2022-07-06T10:58:35;3.65;;;1.13;;
52620;SDS011;38515;53.160;6.990;2022-07-06T11:01:06;3.00;;;1.00;;
52620;SDS011;38515;53.160;6.990;2022-07-06T11:03:34;1.63;;;1.08;;
52620;SDS011;38515;53.160;6.990;2022-07-06T11:06:01;4.20;;;1.00;;
52620;SDS011;38515;53.160;6.990;2022-07-06T11:08:48;3.22;;;1.30;;
52620;SDS011;38515;53.160;6.990;2022-07-06T11:11:17;3.42;;;1.40;;
52620;SDS011;38515;53.160;6.990;2022-07-06T11:13:47;3.17;;;1.00;;
52620;SDS011;38515;53.160;6.990;2022-07-06T11:16:21;7.82;;;1.77;;
52620;SDS011;38515;53.160;6.990;2022-07-06T11:18:59;6.13;;;1.20;;
52620;SDS011;38515;53.160;6.990;2022-07-06T11:21:35;2.10;;;0.98;;
52620;SDS011;38515;53.160;6.990;2022-07-06T11:24:03;6.07;;;1.20;;
52620;SDS011;38515;53.160;6.990;2022-07-06T11:26:31;3.13;;;1.27;;
52620;SDS011;38515;53.160;6.990;2022-07-06T11:28:58;6.05;;;1.35;;
52620;SDS011;38515;53.160;6.990;2022-07-06T11:31:26;6.72;;;1.52;;
52620;SDS011;38515;53.160;6.990;2022-07-06T11:33:51;6.00;;;1.80;;
52620;SDS011;38515;53.160;6.990;2022-07-06T11:36:18;1.73;;;1.10;;
52620;SDS011;38515;53.160;6.990;2022-07-06T11:38:46;2.45;;;1.02;;
52620;SDS011;38515;53.160;6.990;2022-07-06T11:41:13;3.33;;;1.88;;
52620;SDS011;38515;53.160;6.990;2022-07-06T11:43:42;4.18;;;1.10;;
52620;SDS011;38515;53.160;6.990;2022-07-06T11:46:24;3.35;;;0.93;;
52620;SDS011;38515;53.160;6.990;2022-07-06T11:48:53;1.05;;;0.68;;
52620;SDS011;38515;53.160;6.990;2022-07-06T11:51:22;5.35;;;1.30;;
52620;SDS011;38515;53.160;6.990;2022-07-06T11:53:51;1.77;;;1.00;;
52620;SDS011;38515;53.160;6.990;2022-07-06T11:56:18;2.15;;;1.30;;
52620;SDS011;38515;53.160;6.990;2022-07-06T11:58:48;5.50;;;1.33;;
52620;SDS011;38515;53.160;6.990;2022-07-06T12:01:15;4.35;;;1.30;;
52620;SDS011;38515;53.160;6.990;2022-07-06T12:03:41;2.72;;;1.58;;
52620;SDS011;38515;53.160;6.990;2022-07-06T12:06:13;2.72;;;1.45;;
52620;SDS011;38515;53.160;6.990;2022-07-06T12:08:41;5.18;;;1.83;;
52620;SDS011;38515;53.160;6.990;2022-07-06T12:11:09;2.15;;;1.35;;
52620;SDS011;38515;53.160;6.990;2022-07-06T12:13:36;1.98;;;1.38;;
52620;SDS011;38515;53.160;6.990;2022-07-06T12:16:09;1.55;;;1.10;;
52620;SDS011;38515;53.160;6.990;2022-07-06T12:18:38;2.35;;;1.02;;
52620;SDS011;38515;53.160;6.990;2022-07-06T12:21:06;3.63;;;0.98;;
52620;SDS011;38515;53.160;6.990;2022-07-06T12:23:44;2.40;;;1.10;;
52620;SDS011;38515;53.160;6.990;2022-07-06T12:26:11;4.97;;;1.15;;
52620;SDS011;38515;53.160;6.990;2022-07-06T12:28:38;3.55;;;1.60;;
52620;SDS011;38515;53.160;6.990;2022-07-06T12:31:04;2.03;;;1.15;;
52620;SDS011;38515;53.160;6.990;2022-07-06T12:33:30;2.17;;;1.23;;
52620;SDS011;38515;53.160;6.990;2022-07-06T12:35:56;7.75;;;1.40;;
52620;SDS011;38515;53.160;6.990;2022-07-06T12:38:23;5.05;;;1.30;;
52620;SDS011;38515;53.160;6.990;2022-07-06T12:40:51;1.55;;;0.82;;
52620;SDS011;38515;53.160;6.990;2022-07-06T12:43:36;3.33;;;1.23;;
52620;SDS011;38515;53.160;6.990;2022-07-06T12:48:59;5.75;;;1.27;;
52620;SDS011;38515;53.160;6.990;2022-07-06T12:51:26;5.22;;;1.30;;
52620;SDS011;38515;53.160;6.990;2022-07-06T12:53:52;1.95;;;0.90;;
52620;SDS011;38515;53.160;6.990;2022-07-06T12:56:18;5.43;;;0.90;;
52620;SDS011;38515;53.160;6.990;2022-07-06T12:58:55;1.60;;;0.90;;
52620;SDS011;38515;53.160;6.990;2022-07-06T13:01:23;2.83;;;1.40;;
52620;SDS011;38515;53.160;6.990;2022-07-06T13:03:53;4.45;;;1.33;;
52620;SDS011;38515;53.160;6.990;2022-07-06T13:06:28;3.33;;;1.20;;
52620;SDS011;38515;53.160;6.990;2022-07-06T13:08:56;4.13;;;1.48;;
52620;SDS011;38515;53.160;6.990;2022-07-06T13:11:22;3.30;;;0.90;;
52620;SDS011;38515;53.160;6.990;2022-07-06T13:13:48;2.80;;;0.93;;
52620;SDS011;38515;53.160;6.990;2022-07-06T13:16:14;6.00;;;1.10;;
52620;SDS011;38515;53.160;6.990;2022-07-06T13:18:41;1.33;;;0.90;;
52620;SDS011;38515;53.160;6.990;2022-07-06T13:21:07;1.45;;;1.05;;
52620;SDS011;38515;53.160;6.990;2022-07-06T13:23:32;2.13;;;0.90;;
52620;SDS011;38515;53.160;6.990;2022-07-06T13:25:58;3.92;;;1.10;;
52620;SDS011;38515;53.160;6.990;2022-07-06T13:28:24;2.92;;;1.20;;
52620;SDS011;38515;53.160;6.990;2022-07-06T13:30:50;1.92;;;1.10;;
52620;SDS011;38515;53.160;6.990;2022-07-06T13:33:16;1.58;;;0.70;;
52620;SDS011;38515;53.160;6.990;2022-07-06T13:35:42;2.72;;;1.00;;
52620;SDS011;38515;53.160;6.990;2022-07-06T13:38:08;2.03;;;1.20;;
52620;SDS011;38515;53.160;6.990;2022-07-06T13:40:33;1.55;;;0.95;;
52620;SDS011;38515;53.160;6.990;2022-07-06T13:43:00;1.38;;;0.75;;
52620;SDS011;38515;53.160;6.990;2022-07-06T13:45:26;2.30;;;0.82;;
52620;SDS011;38515;53.160;6.990;2022-07-06T13:47:52;2.35;;;1.10;;
52620;SDS011;38515;53.160;6.990;2022-07-06T13:50:18;1.55;;;1.10;;
52620;SDS011;38515;53.160;6.990;2022-07-06T13:52:44;2.88;;;1.17;;
52620;SDS011;38515;53.160;6.990;2022-07-06T13:55:09;2.08;;;0.77;;
52620;SDS011;38515;53.160;6.990;2022-07-06T13:57:35;2.50;;;0.90;;
52620;SDS011;38515;53.160;6.990;2022-07-06T14:00:03;4.00;;;1.20;;
52620;SDS011;38515;53.160;6.990;2022-07-06T14:02:29;4.45;;;1.10;;
52620;SDS011;38515;53.160;6.990;2022-07-06T14:04:55;2.60;;;0.90;;
52620;SDS011;38515;53.160;6.990;2022-07-06T14:07:21;4.60;;;1.30;;
52620;SDS011;38515;53.160;6.990;2022-07-06T14:09:47;2.00;;;1.02;;
52620;SDS011;38515;53.160;6.990;2022-07-06T14:12:17;2.88;;;1.00;;
52620;SDS011;38515;53.160;6.990;2022-07-06T14:14:42;2.20;;;0.95;;
52620;SDS011;38515;53.160;6.990;2022-07-06T14:17:08;1.77;;;1.00;;
52620;SDS011;38515;53.160;6.990;2022-07-06T14:19:34;3.45;;;0.93;;
52620;SDS011;38515;53.160;6.990;2022-07-06T14:22:00;3.53;;;1.05;;
52620;SDS011;38515;53.160;6.990;2022-07-06T14:24:26;3.13;;;1.05;;
52620;SDS011;38515;53.160;6.990;2022-07-06T14:26:52;1.48;;;1.10;;
52620;SDS011;38515;53.160;6.990;2022-07-06T14:29:17;3.63;;;1.05;;
52620;SDS011;38515;53.160;6.990;2022-07-06T14:31:43;1.65;;;0.90;;
52620;SDS011;38515;53.160;6.990;2022-07-06T14:34:09;2.38;;;0.98;;
52620;SDS011;38515;53.160;6.990;2022-07-06T14:36:35;2.08;;;1.30;;
52620;SDS011;38515;53.160;6.990;2022-07-06T14:39:03;2.33;;;1.15;;
52620;SDS011;38515;53.160;6.990;2022-07-06T14:41:29;4.72;;;1.55;;
52620;SDS011;38515;53.160;6.990;2022-07-06T14:43:55;6.18;;;0.80;;
52620;SDS011;38515;53.160;6.990;2022-07-06T14:46:21;2.00;;;1.15;;
52620;SDS011;38515;53.160;6.990;2022-07-06T14:48:47;4.07;;;1.70;;
52620;SDS011;38515;53.160;6.990;2022-07-06T14:51:13;2.17;;;1.20;;
52620;SDS011;38515;53.160;6.990;2022-07-06T14:53:39;0.88;;;0.80;;